createdAt,value
2018-12-06T00:03:37.351Z,1.60
2018-12-06T00:08:41.847Z,1.80
2018-12-06T00:13:46.348Z,1.70
2018-12-06T00:19:07.255Z,1.70
2018-12-06T00:24:11.751Z,1.80
2018-12-06T00:29:16.317Z,1.80
2018-12-06T00:34:20.865Z,1.90
2018-12-06T00:39:25.347Z,1.90
2018-12-06T00:44:29.866Z,2.00
2018-12-06T00:49:34.443Z,2.00
2018-12-06T00:54:38.926Z,2.10
2018-12-06T00:59:43.404Z,2.20
2018-12-06T01:04:47.904Z,2.20
2018-12-06T01:09:52.392Z,2.30
2018-12-06T01:14:56.897Z,2.30
2018-12-06T01:20:01.391Z,2.30
2018-12-06T01:25:06.974Z,2.40
2018-12-06T01:30:11.457Z,2.40
2018-12-06T01:35:15.961Z,2.40
2018-12-06T01:40:20.506Z,2.40
2018-12-06T01:45:24.990Z,2.50
2018-12-06T01:50:29.510Z,2.50
2018-12-06T01:55:34.007Z,2.60
2018-12-06T02:00:38.514Z,2.60
2018-12-06T02:05:43.000Z,2.60
2018-12-06T02:10:47.481Z,2.60
2018-12-06T02:15:51.961Z,2.60
2018-12-06T02:20:56.446Z,2.70
2018-12-06T02:26:01.038Z,2.80
2018-12-06T02:31:05.518Z,2.70
2018-12-06T02:36:10.001Z,2.70
2018-12-06T02:41:14.481Z,2.70
2018-12-06T02:46:18.967Z,2.80
2018-12-06T02:51:23.466Z,2.70
2018-12-06T02:56:27.951Z,2.80
2018-12-06T03:01:32.549Z,2.80
2018-12-06T03:06:37.037Z,2.80
2018-12-06T03:11:41.519Z,2.80
2018-12-06T03:16:46.014Z,2.80
2018-12-06T03:21:50.510Z,2.80
2018-12-06T03:26:55.018Z,2.90
2018-12-06T03:31:59.522Z,2.80
2018-12-06T03:37:04.014Z,2.80
2018-12-06T03:42:08.503Z,2.90
2018-12-06T03:47:12.986Z,2.90
2018-12-06T03:52:17.487Z,2.90
2018-12-06T03:57:21.979Z,2.80
2018-12-06T04:02:26.454Z,2.80
2018-12-06T04:07:30.936Z,2.80
2018-12-06T04:12:35.435Z,2.80
2018-12-06T04:17:39.928Z,2.90
2018-12-06T04:22:44.427Z,2.90
2018-12-06T04:27:48.908Z,2.90
2018-12-06T04:32:53.400Z,2.90
2018-12-06T04:37:57.938Z,3.00
2018-12-06T04:43:02.410Z,3.00
2018-12-06T04:48:06.898Z,3.10
2018-12-06T04:53:11.378Z,3.10
2018-12-06T04:58:15.856Z,3.10
2018-12-06T05:03:20.345Z,3.10
2018-12-06T05:08:24.826Z,3.10
2018-12-06T05:13:29.318Z,3.10
2018-12-06T05:18:33.846Z,3.10
2018-12-06T05:23:38.338Z,3.10
2018-12-06T05:28:42.827Z,3.20
2018-12-06T05:33:47.310Z,3.20
2018-12-06T05:38:51.806Z,3.20
2018-12-06T05:43:56.294Z,3.20
2018-12-06T05:49:00.777Z,3.30
2018-12-06T05:54:05.279Z,3.20
2018-12-06T05:59:09.781Z,3.30
2018-12-06T06:04:14.266Z,3.20
2018-12-06T06:09:18.854Z,3.30
2018-12-06T06:14:23.352Z,3.30
2018-12-06T06:19:27.873Z,3.30
2018-12-06T06:24:32.421Z,3.30
2018-12-06T06:29:37.023Z,3.30
2018-12-06T06:34:41.506Z,3.30
2018-12-06T06:39:45.998Z,3.40
2018-12-06T06:44:50.478Z,3.60
2018-12-06T06:49:55.003Z,3.60
2018-12-06T06:55:00.087Z,3.60
2018-12-06T07:00:05.214Z,3.50
2018-12-06T07:05:09.714Z,3.40
2018-12-06T07:10:14.224Z,3.30
2018-12-06T07:15:18.718Z,3.30
2018-12-06T07:20:23.231Z,3.40
2018-12-06T07:25:29.297Z,3.40
2018-12-06T07:30:33.838Z,3.40
2018-12-06T07:35:38.335Z,3.50
2018-12-06T07:40:42.839Z,3.50
2018-12-06T07:45:47.342Z,3.60
2018-12-06T07:50:51.842Z,3.60
2018-12-06T07:55:56.421Z,3.60
2018-12-06T08:01:00.926Z,3.50
2018-12-06T08:06:05.541Z,3.50
2018-12-06T08:11:11.621Z,3.50
2018-12-06T08:16:16.128Z,3.50
2018-12-06T08:21:21.766Z,3.60
2018-12-06T08:26:26.262Z,3.70
2018-12-06T08:31:30.778Z,3.80
2018-12-06T08:36:35.295Z,3.80
2018-12-06T08:41:43.922Z,3.90
2018-12-06T08:46:54.566Z,4.10
2018-12-06T08:51:59.361Z,4.10
2018-12-06T08:57:04.230Z,4.20
2018-12-06T09:02:08.791Z,4.30
2018-12-06T09:07:16.002Z,4.40
2018-12-06T09:12:20.545Z,4.40
2018-12-06T09:17:25.064Z,4.50
2018-12-06T09:22:29.571Z,4.50
2018-12-06T09:27:34.069Z,4.60
2018-12-06T09:32:38.579Z,4.70
2018-12-06T09:37:47.142Z,4.80
2018-12-06T09:42:52.420Z,4.80
2018-12-06T09:47:57.250Z,4.80
2018-12-06T09:53:02.106Z,4.80
2018-12-06T09:58:06.599Z,4.80
2018-12-06T10:03:11.085Z,4.90
2018-12-06T10:08:15.581Z,4.90
2018-12-06T10:13:24.490Z,4.80
2018-12-06T10:18:29.713Z,4.90
2018-12-06T10:23:36.183Z,4.90
2018-12-06T10:28:41.719Z,5.00
2018-12-06T10:33:45.274Z,5.10
2018-12-06T10:38:50.668Z,5.10
2018-12-06T10:43:55.669Z,5.10
2018-12-06T10:49:01.138Z,5.10
2018-12-06T10:54:05.678Z,5.10
2018-12-06T10:59:15.534Z,5.10
2018-12-06T11:04:22.840Z,5.10
2018-12-06T11:09:27.513Z,5.20
2018-12-06T11:14:32.016Z,5.20
2018-12-06T11:19:40.002Z,5.20
2018-12-06T11:24:44.502Z,5.20
2018-12-06T11:29:49.829Z,5.30
2018-12-06T11:34:54.398Z,5.40
2018-12-06T11:39:59.721Z,5.40
2018-12-06T11:45:04.509Z,5.50
2018-12-06T11:50:09.290Z,5.50
2018-12-06T11:55:13.819Z,5.50
2018-12-06T12:00:18.350Z,5.40
2018-12-06T12:05:22.859Z,5.50
2018-12-06T12:10:29.493Z,5.50
2018-12-06T12:15:34.031Z,5.50
2018-12-06T12:20:42.618Z,5.60
2018-12-06T12:25:47.980Z,5.80
2018-12-06T12:30:52.674Z,5.70
2018-12-06T12:35:57.195Z,5.70
2018-12-06T12:41:03.945Z,5.70
2018-12-06T12:46:08.513Z,5.70
2018-12-06T12:51:13.054Z,5.80
2018-12-06T12:56:17.590Z,5.80
2018-12-06T13:01:22.320Z,5.80
2018-12-06T13:06:27.630Z,5.80
2018-12-06T13:11:33.777Z,5.80
2018-12-06T13:16:38.273Z,5.80
2018-12-06T13:21:44.622Z,5.90
2018-12-06T13:26:49.114Z,5.80
2018-12-06T13:31:54.931Z,5.90
2018-12-06T13:36:59.430Z,5.90
2018-12-06T13:42:03.927Z,5.90
2018-12-06T13:47:08.434Z,5.90
2018-12-06T13:52:12.918Z,5.90
2018-12-06T13:57:19.691Z,5.90
2018-12-06T14:02:22.011Z,5.90
2018-12-06T14:07:30.383Z,6.00
2018-12-06T14:12:34.906Z,6.00
2018-12-06T14:17:39.411Z,6.00
2018-12-06T14:22:43.941Z,6.00
2018-12-06T14:27:48.498Z,6.00
2018-12-06T14:32:53.970Z,6.00
2018-12-06T14:37:58.546Z,6.00
2018-12-06T14:43:06.594Z,6.00
2018-12-06T14:48:11.266Z,6.00
2018-12-06T14:53:15.802Z,6.10
2018-12-06T14:58:20.705Z,6.00
2018-12-06T15:03:25.309Z,6.00
2018-12-06T15:08:29.905Z,6.00
2018-12-06T15:13:35.819Z,6.00
2018-12-06T15:18:39.110Z,6.10
2018-12-06T15:23:43.639Z,6.10
2018-12-06T15:28:48.258Z,6.20
2018-12-06T15:33:54.650Z,6.20
2018-12-06T15:38:59.967Z,6.20
2018-12-06T15:44:04.534Z,6.30
2018-12-06T15:49:12.461Z,6.30
2018-12-06T15:54:16.986Z,6.30
2018-12-06T15:59:21.499Z,6.30
2018-12-06T16:04:26.034Z,6.30
2018-12-06T16:09:30.794Z,6.30
2018-12-06T16:14:35.337Z,6.10
2018-12-06T16:19:40.063Z,6.10
2018-12-06T16:24:49.082Z,6.00
2018-12-06T16:29:53.723Z,5.90
2018-12-06T16:34:58.351Z,5.90
2018-12-06T16:40:02.891Z,5.80
2018-12-06T16:45:07.847Z,5.80
2018-12-06T16:50:13.893Z,5.80
2018-12-06T16:55:18.441Z,5.70
2018-12-06T17:00:22.949Z,5.70
2018-12-06T17:05:28.253Z,5.70
2018-12-06T17:10:32.772Z,5.80
2018-12-06T17:15:37.306Z,5.80
2018-12-06T17:20:41.866Z,5.80
2018-12-06T17:25:46.394Z,5.80
2018-12-06T17:30:50.986Z,5.90
2018-12-06T17:35:55.583Z,5.90
2018-12-06T17:41:00.220Z,6.00
2018-12-06T17:46:05.983Z,6.10
2018-12-06T17:51:10.499Z,6.10
2018-12-06T17:56:15.037Z,6.20
2018-12-06T18:01:19.616Z,6.20
2018-12-06T18:06:28.619Z,6.30
2018-12-06T18:11:33.591Z,6.40
2018-12-06T18:16:38.593Z,6.40
2018-12-06T18:21:43.521Z,6.50
2018-12-06T18:26:49.811Z,6.60
2018-12-06T18:31:56.111Z,6.70
2018-12-06T18:37:00.685Z,6.70
2018-12-06T18:42:05.243Z,6.70
2018-12-06T18:47:09.783Z,6.80
2018-12-06T18:52:14.360Z,6.90
2018-12-06T18:57:22.987Z,6.90
2018-12-06T19:02:27.532Z,6.90
2018-12-06T19:07:32.846Z,6.90
2018-12-06T19:12:37.553Z,6.90
2018-12-06T19:17:42.093Z,7.00
2018-12-06T19:22:46.645Z,7.00
2018-12-06T19:27:51.998Z,7.10
2018-12-06T19:32:58.004Z,7.10
2018-12-06T19:38:01.206Z,7.20
2018-12-06T19:43:05.761Z,7.20
2018-12-06T19:48:11.217Z,7.20
2018-12-06T19:53:15.758Z,7.30
2018-12-06T19:58:20.300Z,7.30
2018-12-06T20:03:24.895Z,7.40
2018-12-06T20:08:29.462Z,7.40
2018-12-06T20:13:34.094Z,7.40
2018-12-06T20:18:39.628Z,7.40
2018-12-06T20:23:44.167Z,7.50
2018-12-06T20:28:48.754Z,7.50
2018-12-06T20:33:53.341Z,7.50
2018-12-06T20:38:57.922Z,7.50
2018-12-06T20:44:02.449Z,7.60
2018-12-06T20:49:06.998Z,7.70
2018-12-06T21:03:52.256Z,7.80
2018-12-06T21:08:56.782Z,7.80
2018-12-06T21:14:01.402Z,7.90
2018-12-06T21:19:06.038Z,7.80
2018-12-06T21:24:10.573Z,7.80
2018-12-06T21:29:15.187Z,7.80
2018-12-06T21:34:20.013Z,7.80
2018-12-06T21:39:24.554Z,7.90
2018-12-06T21:44:29.081Z,7.90
2018-12-06T21:49:33.685Z,7.90
2018-12-06T21:54:38.242Z,7.90
2018-12-06T21:59:42.778Z,7.90
2018-12-06T22:04:47.313Z,7.90
2018-12-06T22:09:51.854Z,7.90
2018-12-06T22:14:56.542Z,8.00
2018-12-06T22:20:01.135Z,8.00
2018-12-06T22:25:05.798Z,8.00
2018-12-06T22:30:11.725Z,8.00
2018-12-06T22:35:14.938Z,8.00
2018-12-06T22:40:19.467Z,8.00
2018-12-06T22:46:28.210Z,8.00
2018-12-06T22:51:32.731Z,8.00
2018-12-06T22:56:37.326Z,8.10
2018-12-06T23:01:41.911Z,8.10
2018-12-06T23:06:46.406Z,8.20
2018-12-06T23:11:50.916Z,8.20
2018-12-06T23:16:55.474Z,8.20
2018-12-06T23:21:59.972Z,8.20
2018-12-06T23:27:04.546Z,8.20
2018-12-06T23:32:09.153Z,8.20
2018-12-06T23:37:13.710Z,8.20
2018-12-06T23:42:18.213Z,8.30
2018-12-06T23:47:22.707Z,8.40
2018-12-06T23:52:27.234Z,8.40
2018-12-06T23:57:31.738Z,8.50
